createdAt,value
2018-09-01T00:00:09.850Z,1009.52
2018-09-01T00:01:09.858Z,1009.53
2018-09-01T00:02:09.848Z,1009.51
2018-09-01T00:03:09.821Z,1009.50
2018-09-01T00:04:09.813Z,1009.53
2018-09-01T00:05:09.804Z,1009.50
2018-09-01T00:06:09.805Z,1009.51
2018-09-01T00:07:09.776Z,1009.54
2018-09-01T00:08:09.761Z,1009.52
2018-09-01T00:09:09.753Z,1009.53
2018-09-01T00:10:09.741Z,1009.54
2018-09-01T00:11:09.794Z,1009.54
2018-09-01T00:12:09.725Z,1009.54
2018-09-01T00:13:09.707Z,1009.49
2018-09-01T00:14:09.698Z,1009.52
2018-09-01T00:15:09.690Z,1009.47
2018-09-01T00:16:09.681Z,1009.47
2018-09-01T00:17:09.672Z,1009.49
2018-09-01T00:18:09.658Z,1009.46
2018-09-01T00:19:09.641Z,1009.49
2018-09-01T00:20:09.629Z,1009.50
2018-09-01T00:21:09.620Z,1009.50
2018-09-01T00:22:09.634Z,1009.49
2018-09-01T00:23:09.599Z,1009.50
2018-09-01T00:24:09.591Z,1009.49
2018-09-01T00:25:09.597Z,1009.49
2018-09-01T00:26:09.568Z,1009.52
2018-09-01T00:27:09.571Z,1009.51
2018-09-01T00:28:09.541Z,1009.50
2018-09-01T00:29:09.538Z,1009.51
2018-09-01T00:30:09.525Z,1009.52
2018-09-01T00:31:09.512Z,1009.52
2018-09-01T00:32:09.513Z,1009.53
2018-09-01T00:33:09.488Z,1009.52
2018-09-01T00:34:09.476Z,1009.56
2018-09-01T00:35:09.468Z,1009.56
2018-09-01T00:36:09.459Z,1009.58
2018-09-01T00:37:09.474Z,1009.56
2018-09-01T00:38:09.436Z,1009.56
2018-09-01T00:39:09.421Z,1009.59
2018-09-01T00:40:09.408Z,1009.56
2018-09-01T00:41:09.398Z,1009.54
2018-09-01T00:42:09.391Z,1009.54
2018-09-01T00:43:09.381Z,1009.58
2018-09-01T00:44:09.372Z,1009.60
2018-09-01T00:45:09.354Z,1009.59
2018-09-01T00:46:09.344Z,1009.58
2018-09-01T00:47:09.337Z,1009.60
2018-09-01T00:48:09.344Z,1009.62
2018-09-01T00:49:09.316Z,1009.60
2018-09-01T00:50:09.303Z,1009.58
2018-09-01T00:51:09.292Z,1009.59
2018-09-01T00:52:09.275Z,1009.63
2018-09-01T00:53:09.284Z,1009.63
2018-09-01T00:54:09.260Z,1009.63
2018-09-01T00:55:09.248Z,1009.62
2018-09-01T00:56:09.238Z,1009.59
2018-09-01T00:57:09.228Z,1009.63
2018-09-01T00:58:09.253Z,1009.61
2018-09-01T00:59:09.203Z,1009.62
2018-09-01T01:00:09.186Z,1009.63
2018-09-01T01:01:09.182Z,1009.60
2018-09-01T01:02:09.169Z,1009.60
2018-09-01T01:03:09.156Z,1009.61
2018-09-01T01:04:09.145Z,1009.67
2018-09-01T01:05:09.131Z,1009.64
2018-09-01T01:06:09.125Z,1009.57
2018-09-01T01:07:09.115Z,1009.64
2018-09-01T01:08:09.130Z,1009.63
2018-09-01T01:09:09.094Z,1009.65
2018-09-01T01:10:09.081Z,1009.68
2018-09-01T01:11:09.075Z,1009.71
2018-09-01T01:12:09.054Z,1009.69
2018-09-01T01:13:09.043Z,1009.69
2018-09-01T01:14:09.036Z,1009.71
2018-09-01T01:15:09.026Z,1009.72
2018-09-01T01:16:09.018Z,1009.66
2018-09-01T01:17:09.003Z,1009.67
2018-09-01T01:18:08.991Z,1009.69
2018-09-01T01:19:09.000Z,1009.65
2018-09-01T01:20:08.972Z,1009.71
2018-09-01T01:21:08.961Z,1009.70
2018-09-01T01:22:08.947Z,1009.65
2018-09-01T01:23:08.935Z,1009.68
2018-09-01T01:24:08.939Z,1009.63
2018-09-01T01:25:08.911Z,1009.68
2018-09-01T01:26:08.901Z,1009.64
2018-09-01T01:27:08.893Z,1009.65
2018-09-01T01:28:08.884Z,1009.67
2018-09-01T01:29:08.890Z,1009.63
2018-09-01T01:30:08.860Z,1009.65
2018-09-01T01:31:08.846Z,1009.65
2018-09-01T01:32:08.837Z,1009.68
2018-09-01T01:33:08.845Z,1009.67
2018-09-01T01:34:08.855Z,1009.67
2018-09-01T01:35:08.801Z,1009.74
2018-09-01T01:36:08.795Z,1009.71
2018-09-01T01:37:08.777Z,1009.68
2018-09-01T01:38:08.768Z,1009.66
2018-09-01T01:39:08.786Z,1009.70
2018-09-01T01:40:08.752Z,1009.66
2018-09-01T01:41:08.740Z,1009.66
2018-09-01T01:42:08.728Z,1009.64
2018-09-01T01:43:08.715Z,1009.66
2018-09-01T01:44:08.700Z,1009.70
2018-09-01T01:45:08.691Z,1009.65
2018-09-01T01:46:08.681Z,1009.63
2018-09-01T01:47:08.671Z,1009.68
2018-09-01T01:48:08.663Z,1009.68
2018-09-01T01:49:08.644Z,1009.70
2018-09-01T01:50:08.662Z,1009.72
2018-09-01T01:51:08.628Z,1009.67
2018-09-01T01:52:08.621Z,1009.68
2018-09-01T01:53:08.609Z,1009.68
2018-09-01T01:54:08.595Z,1009.73
2018-09-01T01:55:08.581Z,1009.73
2018-09-01T01:56:08.571Z,1009.71
2018-09-01T01:57:08.557Z,1009.71
2018-09-01T01:58:08.550Z,1009.69
2018-09-01T01:59:08.539Z,1009.66
2018-09-01T02:00:08.531Z,1009.67
2018-09-01T02:01:08.550Z,1009.68
2018-09-01T02:02:08.506Z,1009.73
2018-09-01T02:03:08.493Z,1009.74
2018-09-01T02:04:08.481Z,1009.69
2018-09-01T02:05:08.474Z,1009.70
2018-09-01T02:06:08.467Z,1009.71
2018-09-01T02:07:08.462Z,1009.70
2018-09-01T02:08:08.438Z,1009.69
2018-09-01T02:09:08.424Z,1009.69
2018-09-01T02:10:08.415Z,1009.69
2018-09-01T02:11:08.406Z,1009.69
2018-09-01T02:12:08.421Z,1009.70
2018-09-01T02:13:08.386Z,1009.72
2018-09-01T02:14:08.373Z,1009.70
2018-09-01T02:15:08.375Z,1009.69
2018-09-01T02:16:08.371Z,1009.74
2018-09-01T02:17:08.336Z,1009.73
2018-09-01T02:18:08.328Z,1009.74
2018-09-01T02:19:08.318Z,1009.73
2018-09-01T02:20:08.310Z,1009.75
2018-09-01T02:21:08.292Z,1009.74
2018-09-01T02:22:08.290Z,1009.74
2018-09-01T02:23:08.275Z,1009.80
2018-09-01T02:24:08.266Z,1009.75
2018-09-01T02:25:08.256Z,1009.80
2018-09-01T02:26:08.243Z,1009.78
2018-09-01T02:27:08.252Z,1009.81
2018-09-01T02:28:08.217Z,1009.80
2018-09-01T02:29:08.204Z,1009.78
2018-09-01T02:30:08.203Z,1009.80
2018-09-01T02:31:08.184Z,1009.74
2018-09-01T02:32:08.177Z,1009.73
2018-09-01T02:33:08.170Z,1009.77
2018-09-01T02:34:08.154Z,1009.76
2018-09-01T02:35:08.139Z,1009.71
2018-09-01T02:36:08.128Z,1009.76
2018-09-01T02:37:08.126Z,1009.71
2018-09-01T02:38:08.130Z,1009.73
2018-09-01T02:39:08.095Z,1009.72
2018-09-01T02:40:08.082Z,1009.76
2018-09-01T02:41:08.074Z,1009.75
2018-09-01T02:42:08.065Z,1009.75
2018-09-01T02:43:08.080Z,1009.77
2018-09-01T02:44:08.048Z,1009.79
2018-09-01T02:45:08.036Z,1009.77
2018-09-01T02:46:08.022Z,1009.76
2018-09-01T02:47:08.009Z,1009.79
2018-09-01T02:48:07.997Z,1009.77
2018-09-01T02:49:07.989Z,1009.77
2018-09-01T02:50:07.978Z,1009.77
2018-09-01T02:51:07.966Z,1009.80
2018-09-01T02:52:07.958Z,1009.82
2018-09-01T02:53:07.943Z,1009.83
2018-09-01T02:54:07.957Z,1009.84
2018-09-01T02:55:07.924Z,1009.83
2018-09-01T02:56:07.917Z,1009.85
2018-09-01T02:57:07.909Z,1009.86
2018-09-01T02:58:07.891Z,1009.80
2018-09-01T02:59:07.877Z,1009.79
2018-09-01T03:00:07.865Z,1009.77
2018-09-01T03:01:07.851Z,1009.80
2018-09-01T03:02:07.842Z,1009.76
2018-09-01T03:03:07.837Z,1009.85
2018-09-01T03:04:07.825Z,1009.78
2018-09-01T03:05:07.831Z,1009.75
2018-09-01T03:06:07.830Z,1009.81
2018-09-01T03:07:07.789Z,1009.82
2018-09-01T03:08:07.774Z,1009.81
2018-09-01T03:09:07.776Z,1009.86
2018-09-01T03:10:07.781Z,1009.87
2018-09-01T03:11:07.746Z,1009.89
2018-09-01T03:12:07.730Z,1009.89
2018-09-01T03:13:07.724Z,1009.85
2018-09-01T03:14:07.712Z,1009.85
2018-09-01T03:15:07.706Z,1009.88
2018-09-01T03:16:07.694Z,1009.90
2018-09-01T03:17:07.681Z,1009.88
2018-09-01T03:18:07.670Z,1009.87
2018-09-01T03:19:07.656Z,1009.88
2018-09-01T03:20:07.641Z,1009.88
2018-09-01T03:21:07.659Z,1009.88
2018-09-01T03:22:07.629Z,1009.87
2018-09-01T03:23:07.613Z,1009.87
2018-09-01T03:24:07.603Z,1009.88
2018-09-01T03:25:07.644Z,1009.89
2018-09-01T03:26:07.597Z,1009.89
2018-09-01T03:27:07.570Z,1009.88
2018-09-01T03:28:07.560Z,1009.93
2018-09-01T03:29:07.552Z,1009.93
2018-09-01T03:30:07.538Z,1009.93
2018-09-01T03:31:07.522Z,1009.93
2018-09-01T03:32:07.530Z,1009.91
2018-09-01T03:33:07.498Z,1009.93
2018-09-01T03:34:07.489Z,1009.95
2018-09-01T03:35:07.480Z,1009.92
2018-09-01T03:36:07.475Z,1009.98
2018-09-01T03:37:07.488Z,1009.95
2018-09-01T03:38:07.448Z,1009.88
2018-09-01T03:39:07.437Z,1009.95
2018-09-01T03:40:07.420Z,1009.91
2018-09-01T03:41:07.419Z,1009.96
2018-09-01T03:42:07.404Z,1009.93
2018-09-01T03:43:07.391Z,1009.98
2018-09-01T03:44:07.378Z,1009.96
2018-09-01T03:45:07.365Z,1009.93
2018-09-01T03:46:07.356Z,1009.95
2018-09-01T03:47:07.348Z,1009.89
2018-09-01T03:48:07.362Z,1009.91
2018-09-01T03:49:07.355Z,1009.95
2018-09-01T03:50:07.314Z,1009.92
2018-09-01T03:51:07.301Z,1009.93
2018-09-01T03:52:07.287Z,1009.92
2018-09-01T03:53:07.288Z,1009.97
2018-09-01T03:54:07.269Z,1010.00
2018-09-01T03:55:07.259Z,1009.97
2018-09-01T03:56:07.250Z,1010.00
2018-09-01T03:57:07.240Z,1010.04
2018-09-01T03:58:07.223Z,1010.02
2018-09-01T03:59:07.232Z,1009.96
2018-09-01T04:00:07.210Z,1009.98
2018-09-01T04:01:07.194Z,1009.96
2018-09-01T04:02:07.184Z,1009.95
2018-09-01T04:03:07.170Z,1009.94
2018-09-01T04:04:07.179Z,1009.97
2018-09-01T04:05:07.150Z,1009.97
2018-09-01T04:06:07.139Z,1010.00
2018-09-01T04:07:07.127Z,1009.97
2018-09-01T04:08:07.114Z,1010.07
2018-09-01T04:09:07.100Z,1010.03
2018-09-01T04:10:07.093Z,1010.06
2018-09-01T04:11:07.082Z,1010.07
2018-09-01T04:12:07.094Z,1010.06
2018-09-01T04:13:07.055Z,1010.03
2018-09-01T04:14:07.052Z,1010.02
2018-09-01T04:15:07.055Z,1010.01
2018-09-01T04:16:07.029Z,1010.01
2018-09-01T04:17:07.019Z,1009.99
2018-09-01T04:18:07.007Z,1009.96
2018-09-01T04:19:07.009Z,1009.96
2018-09-01T04:20:07.018Z,1009.94
2018-09-01T04:21:06.968Z,1009.94
2018-09-01T04:22:06.963Z,1009.95
2018-09-01T04:23:06.954Z,1009.98
2018-09-01T04:24:06.940Z,1009.99
2018-09-01T04:25:06.950Z,1009.98
2018-09-01T04:26:06.916Z,1010.04
2018-09-01T04:27:06.903Z,1010.03
2018-09-01T04:28:06.890Z,1010.01
2018-09-01T04:29:06.885Z,1010.08
2018-09-01T04:30:06.890Z,1010.09
2018-09-01T04:31:06.861Z,1010.05
2018-09-01T04:32:06.927Z,1010.09
2018-09-01T04:33:06.834Z,1010.07
2018-09-01T04:34:06.826Z,1010.05
2018-09-01T04:35:06.858Z,1010.07
2018-09-01T04:36:06.807Z,1010.10
2018-09-01T04:37:06.798Z,1010.11
2018-09-01T04:38:06.783Z,1010.11
2018-09-01T04:39:06.770Z,1010.15
2018-09-01T04:40:06.759Z,1010.13
2018-09-01T04:41:06.746Z,1010.15
2018-09-01T04:42:06.737Z,1010.19
2018-09-01T04:43:06.729Z,1010.15
2018-09-01T04:44:06.721Z,1010.17
2018-09-01T04:45:06.700Z,1010.16
2018-09-01T04:46:06.718Z,1010.16
2018-09-01T04:47:06.749Z,1010.18
2018-09-01T04:48:06.674Z,1010.18
2018-09-01T04:49:06.665Z,1010.20
2018-09-01T04:50:06.651Z,1010.22
2018-09-01T04:51:06.637Z,1010.22
2018-09-01T04:52:06.629Z,1010.21
2018-09-01T04:53:06.614Z,1010.24
2018-09-01T04:54:06.606Z,1010.31
2018-09-01T04:55:06.596Z,1010.29
2018-09-01T04:56:06.588Z,1010.29
2018-09-01T04:57:06.594Z,1010.30
2018-09-01T04:58:06.564Z,1010.33
2018-09-01T04:59:06.591Z,1010.33
2018-09-01T05:00:06.536Z,1010.35
2018-09-01T05:01:06.572Z,1010.38
2018-09-01T05:02:06.549Z,1010.32
2018-09-01T05:03:06.507Z,1010.34
2018-09-01T05:04:06.491Z,1010.32
2018-09-01T05:05:06.485Z,1010.33
2018-09-01T05:06:06.472Z,1010.35
2018-09-01T05:07:06.470Z,1010.35
2018-09-01T05:08:06.472Z,1010.39
2018-09-01T05:09:06.442Z,1010.36
2018-09-01T05:10:06.430Z,1010.44
2018-09-01T05:11:06.417Z,1010.46
2018-09-01T05:12:06.405Z,1010.41
2018-09-01T05:13:06.410Z,1010.48
2018-09-01T05:14:06.385Z,1010.53
2018-09-01T05:15:06.375Z,1010.46
2018-09-01T05:16:06.366Z,1010.52
2018-09-01T05:17:06.348Z,1010.51
2018-09-01T05:18:06.384Z,1010.47
2018-09-01T05:19:06.332Z,1010.49
2018-09-01T05:20:06.321Z,1010.55
2018-09-01T05:21:06.311Z,1010.55
2018-09-01T05:22:06.297Z,1010.61
2018-09-01T05:23:06.288Z,1010.57
2018-09-01T05:24:06.336Z,1010.64
2018-09-01T05:25:06.259Z,1010.57
2018-09-01T05:26:06.251Z,1010.63
2018-09-01T05:27:06.244Z,1010.60
2018-09-01T05:28:06.234Z,1010.65
2018-09-01T05:29:06.244Z,1010.63
2018-09-01T05:30:06.209Z,1010.66
2018-09-01T05:31:06.206Z,1010.64
2018-09-01T05:32:06.183Z,1010.62
2018-09-01T05:33:06.177Z,1010.70
2018-09-01T05:34:06.194Z,1010.67
2018-09-01T05:35:06.151Z,1010.69
2018-09-01T05:36:06.141Z,1010.68
2018-09-01T05:37:06.127Z,1010.73
2018-09-01T05:38:06.117Z,1010.72
2018-09-01T05:39:06.109Z,1010.69
2018-09-01T05:40:06.104Z,1010.74
2018-09-01T05:41:06.091Z,1010.71
2018-09-01T05:42:06.088Z,1010.74
2018-09-01T05:43:06.064Z,1010.76
2018-09-01T05:44:06.057Z,1010.75
2018-09-01T05:45:06.068Z,1010.77
2018-09-01T05:46:06.033Z,1010.71
2018-09-01T05:47:06.023Z,1010.75
2018-09-01T05:48:06.015Z,1010.76
2018-09-01T05:49:05.997Z,1010.79
2018-09-01T05:50:05.989Z,1010.80
2018-09-01T05:51:05.983Z,1010.84
2018-09-01T05:52:05.971Z,1010.85
2018-09-01T05:53:05.960Z,1010.86
2018-09-01T05:54:05.948Z,1010.84
2018-09-01T05:55:05.934Z,1010.88
2018-09-01T05:56:05.945Z,1010.89
2018-09-01T05:57:05.914Z,1010.93
2018-09-01T05:58:05.903Z,1010.92
2018-09-01T05:59:05.893Z,1010.91
2018-09-01T06:00:05.884Z,1010.95
2018-09-01T06:01:05.886Z,1010.96
2018-09-01T06:02:05.865Z,1011.00
2018-09-01T06:03:05.849Z,1010.97
2018-09-01T06:04:05.833Z,1011.01
2018-09-01T06:05:05.837Z,1011.00
2018-09-01T06:06:05.945Z,1011.03
2018-09-01T06:07:05.807Z,1010.95
2018-09-01T06:08:05.790Z,1010.98
2018-09-01T06:09:05.779Z,1011.02
2018-09-01T06:10:05.771Z,1010.98
2018-09-01T06:11:05.769Z,1010.99
2018-09-01T06:12:05.787Z,1011.02
2018-09-01T06:13:05.743Z,1011.01
2018-09-01T06:14:05.730Z,1011.08
2018-09-01T06:15:05.716Z,1011.02
2018-09-01T06:16:05.704Z,1011.10
2018-09-01T06:17:05.692Z,1011.07
2018-09-01T06:18:05.690Z,1011.07
2018-09-01T06:19:05.698Z,1011.11
2018-09-01T06:20:05.667Z,1011.13
2018-09-01T06:21:05.651Z,1011.09
2018-09-01T06:22:05.643Z,1011.14
2018-09-01T06:23:05.650Z,1011.17
2018-09-01T06:24:05.623Z,1011.16
2018-09-01T06:25:05.613Z,1011.16
2018-09-01T06:26:05.602Z,1011.15
2018-09-01T06:27:05.596Z,1011.14
2018-09-01T06:28:05.574Z,1011.18
2018-09-01T06:29:05.567Z,1011.15
2018-09-01T06:30:05.610Z,1011.13
2018-09-01T06:31:05.546Z,1011.14
2018-09-01T06:32:05.538Z,1011.14
2018-09-01T06:33:05.527Z,1011.13
2018-09-01T06:34:05.534Z,1011.13
2018-09-01T06:35:05.639Z,1011.13
2018-09-01T06:36:05.496Z,1011.15
2018-09-01T06:37:05.483Z,1011.18
2018-09-01T06:38:05.472Z,1011.19
2018-09-01T06:39:05.474Z,1011.17
2018-09-01T06:40:05.443Z,1011.21
2018-09-01T06:41:05.432Z,1011.23
2018-09-01T06:42:05.425Z,1011.19
2018-09-01T06:43:05.519Z,1011.19
2018-09-01T06:44:05.435Z,1011.20
2018-09-01T06:45:05.394Z,1011.18
2018-09-01T06:46:05.382Z,1011.21
2018-09-01T06:47:05.370Z,1011.19
2018-09-01T06:48:05.358Z,1011.16
2018-09-01T06:49:05.347Z,1011.17
2018-09-01T06:50:05.339Z,1011.24
2018-09-01T06:51:05.362Z,1011.21
2018-09-01T06:52:05.321Z,1011.21
2018-09-01T06:53:05.302Z,1011.21
2018-09-01T06:54:05.294Z,1011.20
2018-09-01T06:55:05.311Z,1011.21
2018-09-01T06:56:05.279Z,1011.22
2018-09-01T06:57:05.266Z,1011.22
2018-09-01T06:58:05.251Z,1011.27
2018-09-01T06:59:05.239Z,1011.23
2018-09-01T07:00:05.229Z,1011.23
2018-09-01T07:01:05.218Z,1011.23
2018-09-01T07:02:05.209Z,1011.29
2018-09-01T07:03:05.199Z,1011.26
2018-09-01T07:04:05.192Z,1011.24
2018-09-01T07:05:05.181Z,1011.30
2018-09-01T07:06:05.184Z,1011.27
2018-09-01T07:07:05.153Z,1011.29
2018-09-01T07:08:05.139Z,1011.26
2018-09-01T07:09:05.138Z,1011.30
2018-09-01T07:10:05.148Z,1011.34
2018-09-01T07:11:05.134Z,1011.32
2018-09-01T07:12:05.096Z,1011.27
2018-09-01T07:13:05.085Z,1011.31
2018-09-01T07:14:05.076Z,1011.29
2018-09-01T07:15:05.067Z,1011.29
2018-09-01T07:16:05.059Z,1011.31
2018-09-01T07:17:05.050Z,1011.32
2018-09-01T07:18:05.034Z,1011.31
2018-09-01T07:19:05.037Z,1011.33
2018-09-01T07:20:05.008Z,1011.34
2018-09-01T07:21:04.996Z,1011.30
2018-09-01T07:22:05.016Z,1011.33
2018-09-01T07:23:04.996Z,1011.35
